La Joya, New Mexico
Current Conditions -  °F | °C
As of 3:15 PM on Sunday 23 Nov 2014 (Local Time) from KE80 Reporting Station
Clear Clear  
Wind Chill:   Ceiling: Unl
Heat Index:   Visibility: 10mi
Dew Point: -13°   Wind: 24mph
Humidity: 23%   Direction: 300°WNW
Pressure: 29.93"   Gusts: 31mph
Location:  34.35°N, 106.84°W
Report Text: KE80 232215Z AUTO 30021G27KT 10SM CLR 08/M12 A2993 RMK AO2 T00791125
Loading
Personal Weather Stations






























Interactive Weather Map New forecast layout! Learn more

10-Day Weather Forecast

Advertisements
Track Severe Weather on mobile